Time,TemperatureF,DewpointF,PressureIn,WindDirection,WindDirectionDegrees,WindSpeedMPH,WindSpeedGustMPH,Humidity,HourlyPrecipIn,Conditions,Clouds,dailyrainin,SoftwareType,DateUTC
2013-07-10 00:01:00,72.3,68.9,29.12,SW,225,2.0,2.0,89,0.00,,,0.13,meteohub,2013-07-10 04:01:00,
2013-07-10 00:02:00,72.3,68.9,29.12,SW,225,2.0,2.0,89,0.00,,,0.13,meteohub,2013-07-10 04:02:00,
2013-07-10 00:07:00,72.3,68.9,29.12,SSW,202,0.0,2.0,89,0.00,,,0.00,meteohub,2013-07-10 04:07:00,
2013-07-10 00:12:00,72.3,68.9,29.12,SW,225,0.0,2.0,89,0.00,,,0.00,meteohub,2013-07-10 04:12:00,
2013-07-10 00:17:00,72.3,68.9,29.12,SSW,202,2.0,3.0,89,0.00,,,0.00,meteohub,2013-07-10 04:17:00,
2013-07-10 00:22:00,72.3,69.3,29.12,SW,225,1.0,4.0,90,0.00,,,0.00,meteohub,2013-07-10 04:22:00,
2013-07-10 00:27:00,72.1,69.1,29.12,SW,225,3.0,4.0,90,0.00,,,0.00,meteohub,2013-07-10 04:27:00,
2013-07-10 00:32:00,72.0,68.9,29.12,South,180,0.0,7.0,90,0.00,,,0.00,meteohub,2013-07-10 04:32:00,
2013-07-10 00:37:00,72.0,68.9,29.12,SW,225,2.0,7.0,90,0.00,,,0.00,meteohub,2013-07-10 04:37:00,
2013-07-10 00:42:00,72.0,68.9,29.12,SW,225,0.0,7.0,90,0.04,,,0.04,meteohub,2013-07-10 04:42:00,
2013-07-10 00:47:00,72.0,68.9,29.12,SW,225,0.0,3.0,90,0.04,,,0.04,meteohub,2013-07-10 04:47:00,
2013-07-10 00:52:00,72.0,68.9,29.12,SW,225,0.0,2.0,90,0.04,,,0.04,meteohub,2013-07-10 04:52:00,
2013-07-10 00:57:00,72.0,69.3,29.12,East,90,0.0,3.0,91,0.13,,,0.13,meteohub,2013-07-10 04:57:00,
2013-07-10 01:02:00,71.6,69.1,29.12,West,270,3.0,4.0,92,0.46,,,0.46,meteohub,2013-07-10 05:02:00,
2013-07-10 01:07:00,71.6,69.1,29.12,SW,225,2.0,4.0,92,0.50,,,0.50,meteohub,2013-07-10 05:07:00,
2013-07-10 01:12:00,71.6,69.4,29.12,SW,225,0.0,4.0,93,0.54,,,0.54,meteohub,2013-07-10 05:12:00,
2013-07-10 01:17:00,71.6,69.8,29.12,SE,135,0.0,3.0,94,0.58,,,0.58,meteohub,2013-07-10 05:17:00,
2013-07-10 01:22:00,71.6,69.8,29.12,East,90,1.0,3.0,94,0.71,,,0.71,meteohub,2013-07-10 05:22:00,
2013-07-10 01:27:00,71.4,70.0,29.06,SE,135,1.0,2.0,95,0.83,,,0.83,meteohub,2013-07-10 05:27:00,
2013-07-10 01:32:00,71.4,70.2,29.06,SW,225,2.0,2.0,96,0.87,,,0.87,meteohub,2013-07-10 05:32:00,
2013-07-10 01:37:00,71.2,70.0,29.06,ENE,68,0.0,2.0,96,0.92,,,0.96,meteohub,2013-07-10 05:37:00,
2013-07-10 01:42:00,71.1,69.8,29.06,South,180,0.0,2.0,96,1.13,,,1.17,meteohub,2013-07-10 05:42:00,
2013-07-10 01:47:00,70.9,69.6,29.06,South,180,0.0,2.0,96,1.25,,,1.29,meteohub,2013-07-10 05:47:00,
2013-07-10 01:52:00,70.9,69.6,29.06,NNE,22,0.0,1.0,96,1.38,,,1.46,meteohub,2013-07-10 05:52:00,
2013-07-10 01:57:00,70.9,69.6,29.06,SW,225,0.0,1.0,96,1.29,,,1.54,meteohub,2013-07-10 05:57:00,
2013-07-10 02:02:00,70.9,70.0,29.06,SW,225,0.0,2.0,97,1.16,,,1.66,meteohub,2013-07-10 06:02:00,
2013-07-10 02:07:00,71.1,70.2,29.06,SW,225,0.0,2.0,97,1.12,,,1.66,meteohub,2013-07-10 06:07:00,
2013-07-10 02:12:00,71.2,70.7,29.06,WSW,248,0.0,2.0,98,1.08,,,1.66,meteohub,2013-07-10 06:12:00,
2013-07-10 02:17:00,71.2,70.7,29.06,South,180,0.0,2.0,98,0.99,,,1.66,meteohub,2013-07-10 06:17:00,
2013-07-10 02:22:00,71.4,70.9,29.06,West,270,2.0,2.0,98,0.95,,,1.66,meteohub,2013-07-10 06:22:00,
2013-07-10 02:27:00,71.6,71.1,29.06,SW,225,0.0,4.0,98,0.83,,,1.66,meteohub,2013-07-10 06:27:00,
2013-07-10 02:32:00,71.6,71.1,29.06,SW,225,0.0,4.0,98,0.79,,,1.66,meteohub,2013-07-10 06:32:00,
2013-07-10 02:37:00,71.8,71.2,29.06,SW,225,0.0,4.0,98,0.58,,,1.66,meteohub,2013-07-10 06:37:00,
2013-07-10 02:42:00,71.8,71.2,29.06,SW,225,0.0,4.0,98,0.41,,,1.66,meteohub,2013-07-10 06:42:00,
2013-07-10 02:47:00,71.8,71.2,29.06,SW,225,0.0,4.0,98,0.29,,,1.66,meteohub,2013-07-10 06:47:00,
2013-07-10 02:52:00,72.0,71.4,29.06,SW,225,0.0,2.0,98,0.16,,,1.66,meteohub,2013-07-10 06:52:00,
2013-07-10 02:57:00,72.0,71.4,29.06,SW,225,0.0,2.0,98,0.04,,,1.66,meteohub,2013-07-10 06:57:00,
2013-07-10 03:02:00,72.0,71.4,29.06,SW,225,0.0,2.0,98,0.00,,,1.66,meteohub,2013-07-10 07:02:00,
2013-07-10 03:07:00,72.1,71.6,29.06,SW,225,0.0,2.0,98,0.00,,,1.66,meteohub,2013-07-10 07:07:00,
2013-07-10 03:12:00,72.1,71.6,29.06,SW,225,0.0,2.0,98,0.00,,,1.66,meteohub,2013-07-10 07:12:00,
2013-07-10 03:17:00,72.1,71.6,29.06,SW,225,0.0,2.0,98,0.00,,,1.66,meteohub,2013-07-10 07:17:00,
2013-07-10 03:22:00,72.1,71.6,29.06,South,180,0.0,1.0,98,0.00,,,1.66,meteohub,2013-07-10 07:22:00,
2013-07-10 03:27:00,72.3,71.8,29.06,SW,225,0.0,1.0,98,0.00,,,1.66,meteohub,2013-07-10 07:27:00,
2013-07-10 03:32:00,72.3,71.8,29.06,SW,225,0.0,1.0,98,0.00,,,1.66,meteohub,2013-07-10 07:32:00,
2013-07-10 03:38:00,72.3,71.8,29.06,SW,225,0.0,1.0,98,0.00,,,1.66,meteohub,2013-07-10 07:38:00,
2013-07-10 03:43:00,72.5,72.0,29.06,SW,225,2.0,2.0,98,0.00,,,1.66,meteohub,2013-07-10 07:43:00,
2013-07-10 03:48:00,72.5,72.0,29.06,SW,225,0.0,2.0,98,0.00,,,1.66,meteohub,2013-07-10 07:48:00,
2013-07-10 03:53:00,72.5,72.0,29.06,SW,225,0.0,2.0,98,0.00,,,1.66,meteohub,2013-07-10 07:53:00,
2013-07-10 03:58:00,72.7,72.1,29.06,SW,225,0.0,2.0,98,0.00,,,1.66,meteohub,2013-07-10 07:58:00,
2013-07-10 04:03:00,72.7,72.1,29.06,SW,225,1.0,3.0,98,0.00,,,1.66,meteohub,2013-07-10 08:03:00,
2013-07-10 04:08:00,72.7,72.1,29.06,SW,225,0.0,3.0,98,0.00,,,1.66,meteohub,2013-07-10 08:08:00,
2013-07-10 04:13:00,72.7,72.1,29.06,SW,225,0.0,3.0,98,0.00,,,1.66,meteohub,2013-07-10 08:13:00,
2013-07-10 04:18:00,72.9,72.3,29.06,SW,225,0.0,2.0,98,0.00,,,1.66,meteohub,2013-07-10 08:18:00,
2013-07-10 04:23:00,72.9,72.3,29.06,SW,225,0.0,2.0,98,0.00,,,1.66,meteohub,2013-07-10 08:23:00,
2013-07-10 04:28:00,72.9,72.3,29.06,West,270,0.0,1.0,98,0.00,,,1.66,meteohub,2013-07-10 08:28:00,
2013-07-10 04:33:00,72.9,72.3,29.06,SW,225,1.0,1.0,98,0.00,,,1.66,meteohub,2013-07-10 08:33:00,
2013-07-10 04:38:00,72.9,72.3,29.06,SW,225,0.0,2.0,98,0.00,,,1.66,meteohub,2013-07-10 08:38:00,
2013-07-10 04:43:00,72.9,72.3,29.03,SW,225,1.0,2.0,98,0.00,,,1.66,meteohub,2013-07-10 08:43:00,
2013-07-10 04:48:00,72.9,72.3,29.03,WNW,292,1.0,2.0,98,0.00,,,1.66,meteohub,2013-07-10 08:48:00,
2013-07-10 04:53:00,72.9,72.3,29.03,West,270,0.0,3.0,98,0.00,,,1.66,meteohub,2013-07-10 08:53:00,
2013-07-10 04:58:00,72.9,72.3,29.06,WSW,248,0.0,3.0,98,0.00,,,1.66,meteohub,2013-07-10 08:58:00,
2013-07-10 05:03:00,72.9,72.3,29.06,West,270,2.0,3.0,98,0.00,,,1.66,meteohub,2013-07-10 09:03:00,
2013-07-10 05:08:00,72.9,72.3,29.06,West,270,3.0,3.0,98,0.00,,,1.66,meteohub,2013-07-10 09:08:00,
2013-07-10 05:13:00,72.9,72.3,29.06,SW,225,0.0,2.0,98,0.00,,,1.66,meteohub,2013-07-10 09:13:00,
2013-07-10 05:18:00,72.9,72.3,29.06,SW,225,0.0,3.0,98,0.00,,,1.66,meteohub,2013-07-10 09:18:00,
2013-07-10 05:23:00,72.9,72.3,29.06,SW,225,0.0,3.0,98,0.00,,,1.66,meteohub,2013-07-10 09:23:00,
2013-07-10 05:28:00,72.9,72.3,29.06,SW,225,0.0,3.0,98,0.00,,,1.66,meteohub,2013-07-10 09:28:00,
2013-07-10 05:33:00,72.9,72.3,29.06,SSW,202,0.0,2.0,98,0.00,,,1.66,meteohub,2013-07-10 09:33:00,
2013-07-10 05:38:00,72.7,72.1,29.06,West,270,0.0,2.0,98,0.00,,,1.66,meteohub,2013-07-10 09:38:00,
2013-07-10 05:43:00,72.7,72.1,29.06,SW,225,2.0,2.0,98,0.00,,,1.66,meteohub,2013-07-10 09:43:00,
2013-07-10 05:48:00,72.7,72.1,29.06,SW,225,0.0,3.0,98,0.00,,,1.66,meteohub,2013-07-10 09:48:00,
2013-07-10 05:53:00,72.7,72.1,29.06,SW,225,1.0,3.0,98,0.00,,,1.66,meteohub,2013-07-10 09:53:00,
2013-07-10 05:58:00,72.7,72.1,29.06,SW,225,0.0,2.0,98,0.00,,,1.66,meteohub,2013-07-10 09:58:00,
2013-07-10 06:03:00,72.7,72.1,29.06,WSW,248,0.0,2.0,98,0.00,,,1.66,meteohub,2013-07-10 10:03:00,
2013-07-10 06:08:00,72.7,72.1,29.06,SW,225,0.0,2.0,98,0.00,,,1.66,meteohub,2013-07-10 10:08:00,
2013-07-10 06:13:00,72.7,72.1,29.06,SW,225,0.0,2.0,98,0.00,,,1.66,meteohub,2013-07-10 10:13:00,
2013-07-10 06:18:00,72.7,72.1,29.06,SW,225,0.0,3.0,98,0.00,,,1.66,meteohub,2013-07-10 10:18:00,
2013-07-10 06:23:00,72.9,72.3,29.06,SW,225,0.0,3.0,98,0.00,,,1.66,meteohub,2013-07-10 10:23:00,
2013-07-10 06:28:00,72.9,72.3,29.06,WSW,248,0.0,3.0,98,0.00,,,1.66,meteohub,2013-07-10 10:28:00,
2013-07-10 06:33:00,72.9,72.3,29.06,SW,225,0.0,3.0,98,0.00,,,1.66,meteohub,2013-07-10 10:33:00,
2013-07-10 06:38:00,72.9,72.3,29.06,SSW,202,0.0,3.0,98,0.00,,,1.66,meteohub,2013-07-10 10:38:00,
2013-07-10 06:43:00,73.0,72.5,29.06,SW,225,0.0,3.0,98,0.00,,,1.66,meteohub,2013-07-10 10:43:00,
2013-07-10 06:48:00,73.0,72.5,29.06,SW,225,0.0,2.0,98,0.00,,,1.66,meteohub,2013-07-10 10:48:00,
2013-07-10 06:53:00,73.0,72.5,29.06,WSW,248,0.0,2.0,98,0.00,,,1.66,meteohub,2013-07-10 10:53:00,
2013-07-10 06:58:00,73.2,72.7,29.06,SW,225,0.0,2.0,98,0.00,,,1.66,meteohub,2013-07-10 10:58:00,
2013-07-10 07:03:00,73.2,72.7,29.06,SW,225,0.0,2.0,98,0.00,,,1.66,meteohub,2013-07-10 11:03:00,
2013-07-10 07:08:00,73.2,72.7,29.06,WNW,292,1.0,2.0,98,0.00,,,1.66,meteohub,2013-07-10 11:08:00,
2013-07-10 07:13:00,73.2,72.7,29.03,SSW,202,0.0,1.0,98,0.00,,,1.66,meteohub,2013-07-10 11:13:00,
2013-07-10 07:18:00,73.2,72.7,29.03,SW,225,0.0,1.0,98,0.00,,,1.66,meteohub,2013-07-10 11:18:00,
2013-07-10 07:23:00,73.4,72.9,29.03,SW,225,0.0,2.0,98,0.00,,,1.66,meteohub,2013-07-10 11:23:00,
2013-07-10 07:28:00,73.4,72.9,29.03,SW,225,0.0,2.0,98,0.00,,,1.66,meteohub,2013-07-10 11:28:00,
2013-07-10 07:33:00,73.6,73.0,29.03,SW,225,0.0,0.0,98,0.00,,,1.66,meteohub,2013-07-10 11:33:00,
2013-07-10 07:38:00,73.6,73.0,29.03,SW,225,0.0,0.0,98,0.00,,,1.66,meteohub,2013-07-10 11:38:00,
2013-07-10 07:43:00,73.6,73.0,29.06,SW,225,0.0,2.0,98,0.00,,,1.66,meteohub,2013-07-10 11:43:00,
2013-07-10 07:48:00,73.8,73.2,29.06,WSW,248,1.0,2.0,98,0.00,,,1.66,meteohub,2013-07-10 11:48:00,
2013-07-10 07:53:00,73.9,73.4,29.06,SW,225,0.0,2.0,98,0.00,,,1.66,meteohub,2013-07-10 11:53:00,
2013-07-10 07:58:00,74.1,73.6,29.06,SW,225,0.0,2.0,98,0.00,,,1.66,meteohub,2013-07-10 11:58:00,
2013-07-10 08:04:00,74.3,73.8,29.06,West,270,2.0,2.0,98,0.00,,,1.66,meteohub,2013-07-10 12:04:00,
2013-07-10 08:09:00,74.5,73.9,29.06,WSW,248,2.0,3.0,98,0.00,,,1.66,meteohub,2013-07-10 12:09:00,
2013-07-10 08:14:00,74.8,74.3,29.06,West,270,0.0,3.0,98,0.00,,,1.66,meteohub,2013-07-10 12:14:00,
2013-07-10 08:19:00,74.8,74.3,29.06,WSW,248,3.0,3.0,98,0.00,,,1.66,meteohub,2013-07-10 12:19:00,
2013-07-10 08:24:00,75.0,74.5,29.06,WSW,248,0.0,4.0,98,0.00,,,1.66,meteohub,2013-07-10 12:24:00,
2013-07-10 08:29:00,75.0,74.5,29.06,WSW,248,0.0,4.0,98,0.00,,,1.66,meteohub,2013-07-10 12:29:00,
2013-07-10 08:34:00,75.2,74.7,29.06,West,270,3.0,5.0,98,0.00,,,1.66,meteohub,2013-07-10 12:34:00,
2013-07-10 08:39:00,75.4,74.8,29.06,West,270,4.0,5.0,98,0.00,,,1.66,meteohub,2013-07-10 12:39:00,
2013-07-10 08:44:00,75.6,75.0,29.06,West,270,3.0,5.0,98,0.00,,,1.66,meteohub,2013-07-10 12:44:00,
2013-07-10 08:49:00,75.7,75.2,29.06,SW,225,0.0,5.0,98,0.00,,,1.66,meteohub,2013-07-10 12:49:00,
2013-07-10 08:54:00,75.9,75.0,29.06,WSW,248,0.0,5.0,97,0.00,,,1.66,meteohub,2013-07-10 12:54:00,
2013-07-10 08:59:00,76.5,74.8,29.06,WSW,248,1.0,5.0,95,0.00,,,1.66,meteohub,2013-07-10 12:59:00,
2013-07-10 09:04:00,76.6,72.9,29.06,West,270,6.0,6.0,88,0.00,,,1.66,meteohub,2013-07-10 13:04:00,
2013-07-10 09:09:00,77.0,72.1,29.06,NW,315,1.0,5.0,85,0.00,,,1.66,meteohub,2013-07-10 13:09:00,
2013-07-10 09:14:00,77.2,72.0,29.06,WNW,292,2.0,6.0,84,0.00,,,1.66,meteohub,2013-07-10 13:14:00,
2013-07-10 09:19:00,77.7,73.2,29.06,West,270,0.0,6.0,86,0.00,,,1.66,meteohub,2013-07-10 13:19:00,
2013-07-10 09:24:00,77.7,72.1,29.06,NW,315,2.0,6.0,83,0.00,,,1.66,meteohub,2013-07-10 13:24:00,
2013-07-10 09:29:00,77.9,71.6,29.06,WSW,248,1.0,5.0,81,0.00,,,1.66,meteohub,2013-07-10 13:29:00,
2013-07-10 09:34:00,78.1,72.1,29.06,West,270,0.0,4.0,82,0.00,,,1.66,meteohub,2013-07-10 13:34:00,
2013-07-10 09:39:00,78.4,70.7,29.06,West,270,2.0,5.0,77,0.00,,,1.66,meteohub,2013-07-10 13:39:00,
2013-07-10 09:44:00,78.8,69.1,29.06,West,270,3.0,5.0,72,0.00,,,1.66,meteohub,2013-07-10 13:44:00,
2013-07-10 09:49:00,79.2,66.4,29.06,West,270,7.0,7.0,65,0.00,,,1.66,meteohub,2013-07-10 13:49:00,
2013-07-10 09:54:00,79.3,67.8,29.06,West,270,1.0,5.0,68,0.00,,,1.66,meteohub,2013-07-10 13:54:00,
2013-07-10 09:59:00,79.7,67.3,29.03,NW,315,2.0,7.0,66,0.00,,,1.66,meteohub,2013-07-10 13:59:00,
2013-07-10 10:04:00,79.9,69.6,29.03,East,90,1.0,7.0,71,0.00,,,1.66,meteohub,2013-07-10 14:04:00,
2013-07-10 10:09:00,80.2,70.0,29.03,SW,225,1.0,4.0,71,0.00,,,1.66,meteohub,2013-07-10 14:09:00,
2013-07-10 10:14:00,81.0,67.6,29.06,SW,225,4.0,4.0,64,0.00,,,1.66,meteohub,2013-07-10 14:14:00,
2013-07-10 10:19:00,80.8,68.0,29.06,SW,225,2.0,6.0,65,0.00,,,1.66,meteohub,2013-07-10 14:19:00,
2013-07-10 10:24:00,80.1,66.4,29.06,West,270,4.0,6.0,63,0.00,,,1.66,meteohub,2013-07-10 14:24:00,
2013-07-10 10:29:00,80.4,65.7,29.06,SW,225,4.0,6.0,61,0.00,,,1.66,meteohub,2013-07-10 14:29:00,
2013-07-10 10:34:00,80.8,66.9,29.06,WNW,292,0.0,6.0,63,0.00,,,1.66,meteohub,2013-07-10 14:34:00,
2013-07-10 10:39:00,81.1,65.5,29.06,SW,225,2.0,6.0,59,0.00,,,1.66,meteohub,2013-07-10 14:39:00,
2013-07-10 10:44:00,82.0,66.7,29.06,West,270,1.0,4.0,60,0.00,,,1.66,meteohub,2013-07-10 14:44:00,
2013-07-10 10:49:00,83.1,67.3,29.06,West,270,2.0,6.0,59,0.00,,,1.66,meteohub,2013-07-10 14:49:00,
2013-07-10 10:54:00,83.8,63.9,29.06,West,270,4.0,6.0,51,0.00,,,1.66,meteohub,2013-07-10 14:54:00,
2013-07-10 10:59:00,83.3,62.8,29.06,West,270,4.0,8.0,50,0.00,,,1.66,meteohub,2013-07-10 14:59:00,
2013-07-10 11:04:00,84.0,63.9,29.06,West,270,2.0,8.0,51,0.00,,,1.66,meteohub,2013-07-10 15:04:00,
2013-07-10 11:09:00,84.7,63.0,29.06,SW,225,2.0,8.0,48,0.00,,,1.66,meteohub,2013-07-10 15:09:00,
2013-07-10 11:14:00,85.8,64.9,29.06,NW,315,4.0,6.0,50,0.00,,,1.66,meteohub,2013-07-10 15:14:00,
2013-07-10 11:19:00,86.5,63.9,29.06,WSW,248,0.0,5.0,47,0.00,,,1.66,meteohub,2013-07-10 15:19:00,
2013-07-10 11:24:00,87.1,64.4,29.06,South,180,0.0,6.0,47,0.00,,,1.66,meteohub,2013-07-10 15:24:00,
2013-07-10 11:29:00,87.8,64.4,29.06,WSW,248,2.0,6.0,46,0.00,,,1.66,meteohub,2013-07-10 15:29:00,
2013-07-10 11:35:00,87.6,61.7,29.06,West,270,6.0,6.0,42,0.00,,,1.66,meteohub,2013-07-10 15:35:00,
2013-07-10 11:40:00,86.4,61.9,29.06,SW,225,0.0,6.0,44,0.00,,,1.66,meteohub,2013-07-10 15:40:00,
2013-07-10 11:45:00,86.0,61.5,29.06,SW,225,0.0,6.0,44,0.00,,,1.66,meteohub,2013-07-10 15:45:00,
2013-07-10 11:50:00,86.5,60.8,29.06,WSW,248,8.0,8.0,42,0.00,,,1.66,meteohub,2013-07-10 15:50:00,
2013-07-10 11:55:00,86.4,61.9,29.06,SW,225,1.0,8.0,44,0.00,,,1.66,meteohub,2013-07-10 15:55:00,
2013-07-10 12:00:00,87.8,61.2,29.06,South,180,3.0,8.0,41,0.00,,,1.66,meteohub,2013-07-10 16:00:00,
2013-07-10 12:05:00,88.0,62.1,29.06,SW,225,2.0,7.0,42,0.00,,,1.66,meteohub,2013-07-10 16:05:00,
2013-07-10 12:10:00,87.8,61.9,29.06,SW,225,5.0,7.0,42,0.00,,,1.66,meteohub,2013-07-10 16:10:00,
2013-07-10 12:15:00,87.4,60.8,29.06,SW,225,4.0,7.0,41,0.00,,,1.66,meteohub,2013-07-10 16:15:00,
2013-07-10 12:20:00,87.1,62.6,29.06,East,90,0.0,8.0,44,0.00,,,1.66,meteohub,2013-07-10 16:20:00,
2013-07-10 12:25:00,87.8,62.6,29.06,West,270,2.0,8.0,43,0.00,,,1.66,meteohub,2013-07-10 16:25:00,
2013-07-10 12:30:00,87.6,63.0,29.03,SW,225,0.0,7.0,44,0.00,,,1.66,meteohub,2013-07-10 16:30:00,
2013-07-10 12:35:00,88.0,59.9,29.03,West,270,6.0,6.0,39,0.00,,,1.66,meteohub,2013-07-10 16:35:00,
2013-07-10 12:40:00,87.8,61.2,29.03,NW,315,0.0,6.0,41,0.00,,,1.66,meteohub,2013-07-10 16:40:00,
2013-07-10 12:45:00,88.0,61.3,29.06,SW,225,4.0,10.0,41,0.00,,,1.66,meteohub,2013-07-10 16:45:00,
2013-07-10 12:50:00,88.2,60.1,29.06,SW,225,10.0,10.0,39,0.00,,,1.66,meteohub,2013-07-10 16:50:00,
2013-07-10 12:55:00,87.1,59.9,29.06,WSW,248,2.0,10.0,40,0.00,,,1.66,meteohub,2013-07-10 16:55:00,
2013-07-10 13:00:00,87.1,61.2,29.03,West,270,4.0,10.0,42,0.00,,,1.66,meteohub,2013-07-10 17:00:00,
2013-07-10 13:05:00,87.3,60.6,29.03,WSW,248,2.0,10.0,41,0.00,,,1.66,meteohub,2013-07-10 17:05:00,
2013-07-10 13:10:00,87.1,59.9,29.03,West,270,5.0,8.0,40,0.00,,,1.66,meteohub,2013-07-10 17:10:00,
2013-07-10 13:15:00,87.1,61.9,29.03,West,270,2.0,8.0,43,0.00,,,1.66,meteohub,2013-07-10 17:15:00,
2013-07-10 13:20:00,87.6,61.0,29.03,WNW,292,3.0,8.0,41,0.00,,,1.66,meteohub,2013-07-10 17:20:00,
2013-07-10 13:25:00,87.8,61.2,29.03,West,270,7.0,7.0,41,0.00,,,1.66,meteohub,2013-07-10 17:25:00,
2013-07-10 13:30:00,88.3,61.0,29.03,WSW,248,3.0,7.0,40,0.00,,,1.66,meteohub,2013-07-10 17:30:00,
2013-07-10 13:35:00,87.6,61.0,29.03,SW,225,1.0,7.0,41,0.00,,,1.66,meteohub,2013-07-10 17:35:00,
2013-07-10 13:40:00,88.0,59.2,29.03,West,270,4.0,7.0,38,0.00,,,1.66,meteohub,2013-07-10 17:40:00,
2013-07-10 13:45:00,88.2,60.1,29.03,West,270,4.0,6.0,39,0.00,,,1.66,meteohub,2013-07-10 17:45:00,
2013-07-10 13:50:00,87.3,60.6,29.03,WSW,248,1.0,6.0,41,0.00,,,1.66,meteohub,2013-07-10 17:50:00,
2013-07-10 13:55:00,87.1,61.2,29.03,West,270,1.0,6.0,42,0.00,,,1.66,meteohub,2013-07-10 17:55:00,
2013-07-10 14:00:00,87.8,62.6,29.03,NW,315,1.0,6.0,43,0.00,,,1.66,meteohub,2013-07-10 18:00:00,
2013-07-10 14:05:00,88.2,62.2,29.03,WNW,292,4.0,6.0,42,0.00,,,1.66,meteohub,2013-07-10 18:05:00,
2013-07-10 14:10:00,88.0,59.9,29.03,SW,225,2.0,6.0,39,0.00,,,1.66,meteohub,2013-07-10 18:10:00,
2013-07-10 14:15:00,88.0,59.9,29.00,SW,225,2.0,9.0,39,0.00,,,1.66,meteohub,2013-07-10 18:15:00,
2013-07-10 14:20:00,88.2,60.1,29.00,NW,315,4.0,9.0,39,0.00,,,1.66,meteohub,2013-07-10 18:20:00,
2013-07-10 14:25:00,88.0,59.9,29.00,WSW,248,4.0,5.0,39,0.00,,,1.66,meteohub,2013-07-10 18:25:00,
2013-07-10 14:30:00,88.0,60.6,29.00,NNE,22,0.0,8.0,40,0.00,,,1.66,meteohub,2013-07-10 18:30:00,
2013-07-10 14:35:00,88.2,59.4,29.00,WSW,248,5.0,8.0,38,0.00,,,1.66,meteohub,2013-07-10 18:35:00,
2013-07-10 14:40:00,87.8,59.7,29.00,SW,225,2.0,9.0,39,0.00,,,1.66,meteohub,2013-07-10 18:40:00,
2013-07-10 14:45:00,88.2,60.1,29.03,NW,315,3.0,9.0,39,0.00,,,1.66,meteohub,2013-07-10 18:45:00,
2013-07-10 14:50:00,87.8,59.0,29.03,West,270,6.0,9.0,38,0.00,,,1.66,meteohub,2013-07-10 18:50:00,
2013-07-10 14:55:00,88.0,59.9,29.03,South,180,3.0,7.0,39,0.00,,,1.66,meteohub,2013-07-10 18:55:00,
2013-07-10 15:00:00,88.3,61.0,29.00,NW,315,2.0,7.0,40,0.00,,,1.66,meteohub,2013-07-10 19:00:00,
2013-07-10 15:05:00,87.8,59.0,29.00,WNW,292,2.0,6.0,38,0.00,,,1.66,meteohub,2013-07-10 19:05:00,
2013-07-10 15:10:00,86.7,58.8,29.00,SW,225,3.0,6.0,39,0.00,,,1.66,meteohub,2013-07-10 19:10:00,
2013-07-10 15:11:00,86.7,58.8,29.00,SW,225,3.0,6.0,39,0.00,,,1.66,meteohub,2013-07-10 19:11:00,
2013-07-10 15:16:00,84.9,55.0,29.03,SW,225,2.0,9.0,36,0.00,,,1.66,meteohub,2013-07-10 19:16:00,
2013-07-10 15:21:00,84.7,54.9,29.03,SW,225,3.0,9.0,36,0.00,,,1.66,meteohub,2013-07-10 19:21:00,
2013-07-10 15:26:00,84.0,55.0,29.03,WSW,248,2.0,9.0,37,0.00,,,1.66,meteohub,2013-07-10 19:26:00,
2013-07-10 15:31:00,83.7,55.4,29.03,WSW,248,2.0,8.0,38,0.00,,,1.66,meteohub,2013-07-10 19:31:00,
2013-07-10 15:36:00,83.5,54.5,29.03,WSW,248,2.0,8.0,37,0.00,,,1.66,meteohub,2013-07-10 19:36:00,
2013-07-10 15:41:00,83.3,55.0,29.03,SW,225,2.0,9.0,38,0.00,,,1.66,meteohub,2013-07-10 19:41:00,
2013-07-10 15:46:00,83.7,55.4,29.03,South,180,4.0,9.0,38,0.00,,,1.66,meteohub,2013-07-10 19:46:00,
2013-07-10 15:51:00,83.5,54.5,29.03,SSW,202,6.0,8.0,37,0.00,,,1.66,meteohub,2013-07-10 19:51:00,
2013-07-10 15:56:00,83.3,55.0,29.03,WSW,248,3.0,6.0,38,0.00,,,1.66,meteohub,2013-07-10 19:56:00,
2013-07-10 16:01:00,83.5,56.7,29.00,SW,225,3.0,6.0,40,0.00,,,1.66,meteohub,2013-07-10 20:01:00,
2013-07-10 16:06:00,83.1,55.6,29.00,SSW,202,2.0,6.0,39,0.00,,,1.66,meteohub,2013-07-10 20:06:00,
2013-07-10 16:11:00,82.9,56.1,29.00,SW,225,2.0,6.0,40,0.00,,,1.66,meteohub,2013-07-10 20:11:00,
2013-07-10 16:16:00,82.8,56.7,29.00,WSW,248,6.0,9.0,41,0.00,,,1.66,meteohub,2013-07-10 20:16:00,
2013-07-10 16:21:00,82.8,56.7,29.00,WSW,248,2.0,10.0,41,0.00,,,1.66,meteohub,2013-07-10 20:21:00,
2013-07-10 16:26:00,82.8,57.9,29.00,WNW,292,4.0,10.0,43,0.00,,,1.66,meteohub,2013-07-10 20:26:00,
2013-07-10 16:31:00,82.9,58.1,29.00,West,270,3.0,10.0,43,0.00,,,1.66,meteohub,2013-07-10 20:31:00,
2013-07-10 16:36:00,83.1,59.0,29.00,West,270,3.0,6.0,44,0.00,,,1.66,meteohub,2013-07-10 20:36:00,
2013-07-10 16:41:00,83.3,59.2,29.00,SW,225,2.0,6.0,44,0.00,,,1.66,meteohub,2013-07-10 20:41:00,
2013-07-10 16:46:00,83.3,59.7,29.00,WSW,248,2.0,6.0,45,0.00,,,1.66,meteohub,2013-07-10 20:46:00,
2013-07-10 16:51:00,83.5,59.9,29.00,South,180,3.0,6.0,45,0.00,,,1.66,meteohub,2013-07-10 20:51:00,
2013-07-10 16:56:00,83.3,59.2,29.00,WSW,248,6.0,6.0,44,0.00,,,1.66,meteohub,2013-07-10 20:56:00,
2013-07-10 17:01:00,83.8,59.5,29.00,ENE,68,1.0,6.0,44,0.00,,,1.66,meteohub,2013-07-10 21:01:00,
2013-07-10 17:06:00,84.0,59.2,29.00,NNW,338,2.0,6.0,43,0.00,,,1.66,meteohub,2013-07-10 21:06:00,
2013-07-10 17:11:00,83.5,58.6,29.03,WNW,292,4.0,6.0,43,0.00,,,1.66,meteohub,2013-07-10 21:11:00,
2013-07-10 17:16:00,83.3,58.5,29.03,SW,225,2.0,12.0,43,0.00,,,1.66,meteohub,2013-07-10 21:16:00,
2013-07-10 17:21:00,83.5,58.6,29.03,North,0,4.0,12.0,43,0.00,,,1.66,meteohub,2013-07-10 21:21:00,
2013-07-10 17:26:00,83.7,58.1,29.00,North,0,5.0,12.0,42,0.00,,,1.66,meteohub,2013-07-10 21:26:00,
2013-07-10 17:31:00,84.9,58.6,29.00,WSW,248,2.0,10.0,41,0.00,,,1.66,meteohub,2013-07-10 21:31:00,
2013-07-10 17:36:00,86.2,57.6,29.00,NNW,338,5.0,10.0,38,0.00,,,1.66,meteohub,2013-07-10 21:36:00,
2013-07-10 17:41:00,86.0,57.4,29.00,NE,45,1.0,7.0,38,0.00,,,1.66,meteohub,2013-07-10 21:41:00,
2013-07-10 17:46:00,85.5,57.7,29.00,North,0,0.0,10.0,39,0.00,,,1.66,meteohub,2013-07-10 21:46:00,
2013-07-10 17:51:00,86.5,57.2,29.00,NE,45,1.0,10.0,37,0.00,,,1.66,meteohub,2013-07-10 21:51:00,
2013-07-10 17:56:00,86.9,55.2,29.00,NNW,338,2.0,10.0,34,0.00,,,1.66,meteohub,2013-07-10 21:56:00,
2013-07-10 18:01:00,87.3,55.4,29.00,West,270,4.0,8.0,34,0.00,,,1.66,meteohub,2013-07-10 22:01:00,
2013-07-10 18:06:00,88.2,54.5,29.00,North,0,1.0,7.0,32,0.00,,,1.66,meteohub,2013-07-10 22:06:00,
2013-07-10 18:11:00,88.2,53.8,29.00,North,0,4.0,7.0,31,0.00,,,1.66,meteohub,2013-07-10 22:11:00,
2013-07-10 18:16:00,88.0,53.6,29.00,North,0,0.0,6.0,31,0.00,,,1.66,meteohub,2013-07-10 22:16:00,
2013-07-10 18:22:00,87.6,54.1,29.00,North,0,0.0,6.0,32,0.00,,,1.66,meteohub,2013-07-10 22:22:00,
2013-07-10 18:27:00,87.4,54.0,29.03,West,270,4.0,4.0,32,0.00,,,1.66,meteohub,2013-07-10 22:27:00,
2013-07-10 18:32:00,86.4,53.1,29.03,North,0,2.0,7.0,32,0.00,,,1.66,meteohub,2013-07-10 22:32:00,
2013-07-10 18:37:00,84.0,51.8,29.03,NNE,22,5.0,7.0,33,0.00,,,1.66,meteohub,2013-07-10 22:37:00,
2013-07-10 18:42:00,82.6,51.4,29.03,North,0,2.0,8.0,34,0.00,,,1.66,meteohub,2013-07-10 22:42:00,
2013-07-10 18:47:00,82.2,51.8,29.03,North,0,3.0,12.0,35,0.00,,,1.66,meteohub,2013-07-10 22:47:00,
2013-07-10 18:52:00,81.3,51.8,29.03,NW,315,3.0,12.0,36,0.00,,,1.66,meteohub,2013-07-10 22:52:00,
2013-07-10 18:57:00,82.6,52.2,29.06,West,270,4.0,12.0,35,0.00,,,1.66,meteohub,2013-07-10 22:57:00,
2013-07-10 19:02:00,83.5,52.2,29.06,North,0,3.0,6.0,34,0.00,,,1.66,meteohub,2013-07-10 23:02:00,
2013-07-10 19:07:00,83.3,52.0,29.06,West,270,3.0,10.0,34,0.00,,,1.66,meteohub,2013-07-10 23:07:00,
2013-07-10 19:12:00,83.7,51.4,29.06,NW,315,5.0,10.0,33,0.00,,,1.66,meteohub,2013-07-10 23:12:00,
2013-07-10 19:17:00,83.7,51.4,29.06,NNW,338,5.0,10.0,33,0.00,,,1.66,meteohub,2013-07-10 23:17:00,
2013-07-10 19:22:00,83.3,51.3,29.06,North,0,3.0,8.0,33,0.00,,,1.66,meteohub,2013-07-10 23:22:00,
2013-07-10 19:27:00,81.1,50.2,29.03,North,0,4.0,6.0,34,0.00,,,1.66,meteohub,2013-07-10 23:27:00,
2013-07-10 19:32:00,79.9,49.8,29.03,WNW,292,4.0,6.0,35,0.00,,,1.66,meteohub,2013-07-10 23:32:00,
2013-07-10 19:37:00,79.0,49.8,29.03,North,0,2.0,6.0,36,0.00,,,1.66,meteohub,2013-07-10 23:37:00,
2013-07-10 19:42:00,78.3,49.8,29.06,North,0,2.0,6.0,37,0.00,,,1.66,meteohub,2013-07-10 23:42:00,
2013-07-10 19:47:00,77.9,49.5,29.06,North,0,3.0,6.0,37,0.00,,,1.66,meteohub,2013-07-10 23:47:00,
2013-07-10 19:52:00,77.2,49.6,29.06,NE,45,3.0,6.0,38,0.00,,,1.66,meteohub,2013-07-10 23:52:00,
2013-07-10 19:57:00,76.6,49.8,29.09,North,0,3.0,4.0,39,0.00,,,1.66,meteohub,2013-07-10 23:57:00,
2013-07-10 20:02:00,76.8,50.7,29.09,North,0,2.0,4.0,40,0.00,,,1.66,meteohub,2013-07-11 00:02:00,
2013-07-10 20:07:00,76.6,50.5,29.09,NNE,22,2.0,4.0,40,0.00,,,1.66,meteohub,2013-07-11 00:07:00,
2013-07-10 20:12:00,76.3,50.9,29.12,North,0,3.0,5.0,41,0.00,,,1.66,meteohub,2013-07-11 00:12:00,
2013-07-10 20:17:00,75.9,50.5,29.12,NE,45,2.0,5.0,41,0.00,,,1.66,meteohub,2013-07-11 00:17:00,
2013-07-10 20:22:00,75.6,50.2,29.12,North,0,2.0,5.0,41,0.00,,,1.66,meteohub,2013-07-11 00:22:00,
2013-07-10 20:27:00,75.0,49.8,29.12,NNE,22,2.0,3.0,41,0.00,,,1.66,meteohub,2013-07-11 00:27:00,
2013-07-10 20:32:00,74.7,50.0,29.12,North,0,2.0,3.0,42,0.00,,,1.66,meteohub,2013-07-11 00:32:00,
2013-07-10 20:37:00,74.3,49.1,29.12,North,0,3.0,3.0,41,0.00,,,1.66,meteohub,2013-07-11 00:37:00,
2013-07-10 20:42:00,73.9,48.7,29.12,NE,45,2.0,4.0,41,0.00,,,1.66,meteohub,2013-07-11 00:42:00,
2013-07-10 20:47:00,73.6,48.4,29.12,North,0,3.0,4.0,41,0.00,,,1.66,meteohub,2013-07-11 00:47:00,
2013-07-10 20:52:00,73.2,48.7,29.12,North,0,1.0,4.0,42,0.00,,,1.66,meteohub,2013-07-11 00:52:00,
2013-07-10 20:57:00,72.9,48.4,29.12,North,0,1.0,3.0,42,0.00,,,1.66,meteohub,2013-07-11 00:57:00,
2013-07-10 21:02:00,72.7,48.2,29.12,North,0,1.0,3.0,42,0.00,,,1.66,meteohub,2013-07-11 01:02:00,
2013-07-10 21:07:00,72.3,48.0,29.12,NW,315,0.0,2.0,42,0.00,,,1.66,meteohub,2013-07-11 01:07:00,
2013-07-10 21:12:00,72.3,48.0,29.12,NE,45,2.0,2.0,42,0.00,,,1.66,meteohub,2013-07-11 01:12:00,
2013-07-10 21:17:00,72.0,47.7,29.12,North,0,1.0,2.0,42,0.00,,,1.66,meteohub,2013-07-11 01:17:00,
2013-07-10 21:22:00,71.6,47.3,29.12,NNW,338,1.0,2.0,42,0.00,,,1.66,meteohub,2013-07-11 01:22:00,
2013-07-10 21:27:00,71.6,47.3,29.12,NW,315,1.0,3.0,42,0.00,,,1.66,meteohub,2013-07-11 01:27:00,
2013-07-10 21:32:00,71.2,47.7,29.12,North,0,2.0,3.0,43,0.00,,,1.66,meteohub,2013-07-11 01:32:00,
2013-07-10 21:37:00,71.2,47.7,29.12,North,0,2.0,3.0,43,0.00,,,1.66,meteohub,2013-07-11 01:37:00,
2013-07-10 21:38:00,71.2,46.9,29.12,North,0,2.0,3.0,42,0.00,,,1.66,meteohub,2013-07-11 01:38:00,
2013-07-10 21:43:00,71.1,46.8,29.15,North,0,2.0,4.0,42,0.00,,,1.66,meteohub,2013-07-11 01:43:00,
2013-07-10 21:48:00,71.1,46.8,29.15,North,0,2.0,4.0,42,0.00,,,1.66,meteohub,2013-07-11 01:48:00,
2013-07-10 21:53:00,70.9,46.6,29.15,North,0,2.0,3.0,42,0.00,,,1.66,meteohub,2013-07-11 01:53:00,
2013-07-10 21:58:00,70.7,46.6,29.15,North,0,2.0,3.0,42,0.00,,,1.66,meteohub,2013-07-11 01:58:00,
2013-07-10 22:03:00,70.5,46.4,29.15,North,0,2.0,3.0,42,0.00,,,1.66,meteohub,2013-07-11 02:03:00,
2013-07-10 22:08:00,70.3,46.8,29.15,North,0,2.0,3.0,43,0.00,,,1.66,meteohub,2013-07-11 02:08:00,
2013-07-10 22:13:00,70.2,46.6,29.15,North,0,1.0,3.0,43,0.00,,,1.66,meteohub,2013-07-11 02:13:00,
2013-07-10 22:18:00,70.0,46.4,29.15,North,0,3.0,3.0,43,0.00,,,1.66,meteohub,2013-07-11 02:18:00,
2013-07-10 22:24:00,70.0,46.4,29.15,North,0,3.0,3.0,43,0.00,,,1.66,meteohub,2013-07-11 02:24:00,
2013-07-10 22:29:00,69.8,46.4,29.18,North,0,2.0,3.0,43,0.00,,,1.66,meteohub,2013-07-11 02:29:00,
2013-07-10 22:34:00,69.6,46.8,29.18,North,0,1.0,3.0,44,0.00,,,1.66,meteohub,2013-07-11 02:34:00,
2013-07-10 22:39:00,69.4,46.6,29.18,NNW,338,1.0,3.0,44,0.00,,,1.66,meteohub,2013-07-11 02:39:00,
2013-07-10 22:44:00,69.3,46.4,29.18,North,0,2.0,2.0,44,0.00,,,1.66,meteohub,2013-07-11 02:44:00,
2013-07-10 22:49:00,69.3,46.4,29.18,North,0,1.0,2.0,44,0.00,,,1.66,meteohub,2013-07-11 02:49:00,
2013-07-10 22:54:00,69.1,46.2,29.18,North,0,1.0,2.0,44,0.00,,,1.66,meteohub,2013-07-11 02:54:00,
2013-07-10 22:59:00,68.9,46.0,29.18,North,0,0.0,2.0,44,0.00,,,1.66,meteohub,2013-07-11 02:59:00,
2013-07-10 23:04:00,68.7,46.6,29.18,North,0,0.0,2.0,45,0.00,,,1.66,meteohub,2013-07-11 03:04:00,
2013-07-10 23:09:00,68.5,46.4,29.18,North,0,0.0,2.0,45,0.00,,,1.66,meteohub,2013-07-11 03:09:00,
2013-07-10 23:14:00,68.4,46.2,29.18,North,0,0.0,2.0,45,0.00,,,1.66,meteohub,2013-07-11 03:14:00,
2013-07-10 23:19:00,68.2,46.0,29.18,North,0,0.0,2.0,45,0.00,,,1.66,meteohub,2013-07-11 03:19:00,
2013-07-10 23:24:00,68.0,45.9,29.18,North,0,0.0,2.0,45,0.00,,,1.66,meteohub,2013-07-11 03:24:00,
2013-07-10 23:29:00,67.8,46.2,29.18,North,0,0.0,2.0,46,0.00,,,1.66,meteohub,2013-07-11 03:29:00,
2013-07-10 23:34:00,67.8,46.2,29.18,North,0,0.0,2.0,46,0.00,,,1.66,meteohub,2013-07-11 03:34:00,
2013-07-10 23:39:00,67.6,46.2,29.18,North,0,0.0,2.0,46,0.00,,,1.66,meteohub,2013-07-11 03:39:00,
2013-07-10 23:44:00,67.5,46.0,29.18,North,0,0.0,2.0,46,0.00,,,1.66,meteohub,2013-07-11 03:44:00,
2013-07-10 23:49:00,67.3,46.4,29.18,North,0,0.0,2.0,47,0.00,,,1.66,meteohub,2013-07-11 03:49:00,
2013-07-10 23:54:00,67.1,46.2,29.18,North,0,0.0,2.0,47,0.00,,,1.66,meteohub,2013-07-11 03:54:00,
2013-07-10 23:59:00,66.9,46.0,29.18,North,0,0.0,1.0,47,0.00,,,1.66,meteohub,2013-07-11 03:59:00,